sensor_id;sensor_type;location;lat;lon;timestamp;P1;durP1;ratioP1;P2;durP2;ratioP2
2860;SDS011;1438;50.922;6.704;2022-07-29T00:00:04;7.27;;;2.07;;
2860;SDS011;1438;50.922;6.704;2022-07-29T00:02:30;1.63;;;1.13;;
2860;SDS011;1438;50.922;6.704;2022-07-29T00:04:57;6.70;;;2.10;;
2860;SDS011;1438;50.922;6.704;2022-07-29T00:07:23;2.43;;;1.40;;
2860;SDS011;1438;50.922;6.704;2022-07-29T00:09:49;4.40;;;1.80;;
2860;SDS011;1438;50.922;6.704;2022-07-29T00:12:15;3.33;;;1.30;;
2860;SDS011;1438;50.922;6.704;2022-07-29T00:14:41;2.30;;;1.57;;
2860;SDS011;1438;50.922;6.704;2022-07-29T00:17:07;3.23;;;1.47;;
2860;SDS011;1438;50.922;6.704;2022-07-29T00:19:33;3.97;;;1.37;;
2860;SDS011;1438;50.922;6.704;2022-07-29T00:21:59;2.20;;;1.53;;
2860;SDS011;1438;50.922;6.704;2022-07-29T00:24:25;4.47;;;1.60;;
2860;SDS011;1438;50.922;6.704;2022-07-29T00:26:51;3.60;;;1.70;;
2860;SDS011;1438;50.922;6.704;2022-07-29T00:29:17;2.00;;;1.43;;
2860;SDS011;1438;50.922;6.704;2022-07-29T00:31:43;4.20;;;1.70;;
2860;SDS011;1438;50.922;6.704;2022-07-29T00:34:09;4.00;;;1.70;;
2860;SDS011;1438;50.922;6.704;2022-07-29T00:36:56;3.00;;;1.10;;
2860;SDS011;1438;50.922;6.704;2022-07-29T00:39:22;4.00;;;2.00;;
2860;SDS011;1438;50.922;6.704;2022-07-29T00:41:49;8.13;;;1.63;;
2860;SDS011;1438;50.922;6.704;2022-07-29T00:44:15;4.97;;;2.00;;
2860;SDS011;1438;50.922;6.704;2022-07-29T00:46:41;5.50;;;1.50;;
2860;SDS011;1438;50.922;6.704;2022-07-29T00:49:07;4.03;;;1.70;;
2860;SDS011;1438;50.922;6.704;2022-07-29T00:51:34;4.40;;;1.60;;
2860;SDS011;1438;50.922;6.704;2022-07-29T00:54:01;2.50;;;1.80;;
2860;SDS011;1438;50.922;6.704;2022-07-29T00:56:27;3.40;;;1.87;;
2860;SDS011;1438;50.922;6.704;2022-07-29T00:58:55;2.07;;;1.60;;
2860;SDS011;1438;50.922;6.704;2022-07-29T01:01:22;7.00;;;2.60;;
2860;SDS011;1438;50.922;6.704;2022-07-29T01:03:48;4.70;;;1.60;;
2860;SDS011;1438;50.922;6.704;2022-07-29T01:06:14;3.00;;;1.67;;
2860;SDS011;1438;50.922;6.704;2022-07-29T01:08:41;3.50;;;1.77;;
2860;SDS011;1438;50.922;6.704;2022-07-29T01:11:07;4.93;;;1.50;;
2860;SDS011;1438;50.922;6.704;2022-07-29T01:13:33;2.43;;;1.40;;
2860;SDS011;1438;50.922;6.704;2022-07-29T01:16:00;2.00;;;1.37;;
2860;SDS011;1438;50.922;6.704;2022-07-29T01:31:24;3.90;;;1.50;;
2860;SDS011;1438;50.922;6.704;2022-07-29T01:33:55;3.70;;;1.70;;
2860;SDS011;1438;50.922;6.704;2022-07-29T01:36:25;5.10;;;1.80;;
2860;SDS011;1438;50.922;6.704;2022-07-29T01:39:02;3.10;;;1.77;;
2860;SDS011;1438;50.922;6.704;2022-07-29T01:41:31;2.60;;;1.50;;
2860;SDS011;1438;50.922;6.704;2022-07-29T01:43:59;2.80;;;1.60;;
2860;SDS011;1438;50.922;6.704;2022-07-29T01:46:30;4.10;;;1.60;;
2860;SDS011;1438;50.922;6.704;2022-07-29T01:48:59;3.40;;;1.70;;
2860;SDS011;1438;50.922;6.704;2022-07-29T01:51:29;9.93;;;1.80;;
2860;SDS011;1438;50.922;6.704;2022-07-29T01:53:59;6.30;;;1.57;;
2860;SDS011;1438;50.922;6.704;2022-07-29T01:56:27;7.07;;;1.67;;
2860;SDS011;1438;50.922;6.704;2022-07-29T01:58:57;3.30;;;1.60;;
2860;SDS011;1438;50.922;6.704;2022-07-29T02:01:24;3.50;;;1.70;;
2860;SDS011;1438;50.922;6.704;2022-07-29T02:03:50;3.63;;;1.80;;
2860;SDS011;1438;50.922;6.704;2022-07-29T02:06:17;3.83;;;1.63;;
2860;SDS011;1438;50.922;6.704;2022-07-29T02:08:44;7.60;;;1.80;;
2860;SDS011;1438;50.922;6.704;2022-07-29T02:11:11;4.77;;;1.77;;
2860;SDS011;1438;50.922;6.704;2022-07-29T02:13:37;3.87;;;1.60;;
2860;SDS011;1438;50.922;6.704;2022-07-29T02:16:04;2.50;;;1.40;;
2860;SDS011;1438;50.922;6.704;2022-07-29T02:18:31;2.50;;;1.77;;
2860;SDS011;1438;50.922;6.704;2022-07-29T02:20:58;6.77;;;2.20;;
2860;SDS011;1438;50.922;6.704;2022-07-29T02:23:25;5.03;;;2.07;;
2860;SDS011;1438;50.922;6.704;2022-07-29T02:25:53;5.63;;;2.00;;
2860;SDS011;1438;50.922;6.704;2022-07-29T02:28:19;4.63;;;1.83;;
2860;SDS011;1438;50.922;6.704;2022-07-29T02:30:46;4.47;;;2.10;;
2860;SDS011;1438;50.922;6.704;2022-07-29T02:33:14;2.20;;;1.50;;
2860;SDS011;1438;50.922;6.704;2022-07-29T02:35:41;2.70;;;1.60;;
2860;SDS011;1438;50.922;6.704;2022-07-29T02:38:09;5.90;;;1.67;;
2860;SDS011;1438;50.922;6.704;2022-07-29T02:40:56;4.57;;;1.90;;
2860;SDS011;1438;50.922;6.704;2022-07-29T02:43:23;8.73;;;2.20;;
2860;SDS011;1438;50.922;6.704;2022-07-29T02:45:51;2.93;;;1.90;;
2860;SDS011;1438;50.922;6.704;2022-07-29T02:48:18;3.60;;;1.60;;
2860;SDS011;1438;50.922;6.704;2022-07-29T02:50:49;6.40;;;2.00;;
2860;SDS011;1438;50.922;6.704;2022-07-29T02:53:17;3.53;;;1.77;;
2860;SDS011;1438;50.922;6.704;2022-07-29T02:55:57;3.87;;;2.00;;
2860;SDS011;1438;50.922;6.704;2022-07-29T02:58:25;2.50;;;1.93;;
2860;SDS011;1438;50.922;6.704;2022-07-29T03:00:53;8.93;;;2.00;;
2860;SDS011;1438;50.922;6.704;2022-07-29T03:03:21;8.70;;;2.37;;
2860;SDS011;1438;50.922;6.704;2022-07-29T03:05:47;4.97;;;2.70;;
2860;SDS011;1438;50.922;6.704;2022-07-29T03:08:13;10.60;;;2.77;;
2860;SDS011;1438;50.922;6.704;2022-07-29T03:10:42;3.80;;;2.00;;
2860;SDS011;1438;50.922;6.704;2022-07-29T03:13:09;7.10;;;2.07;;
2860;SDS011;1438;50.922;6.704;2022-07-29T03:15:35;6.13;;;2.37;;
2860;SDS011;1438;50.922;6.704;2022-07-29T03:18:02;5.90;;;2.17;;
2860;SDS011;1438;50.922;6.704;2022-07-29T03:20:29;4.47;;;1.80;;
2860;SDS011;1438;50.922;6.704;2022-07-29T03:22:55;7.73;;;2.50;;
2860;SDS011;1438;50.922;6.704;2022-07-29T03:25:20;3.70;;;2.00;;
2860;SDS011;1438;50.922;6.704;2022-07-29T03:27:47;4.30;;;2.03;;
2860;SDS011;1438;50.922;6.704;2022-07-29T03:30:14;11.40;;;2.00;;
2860;SDS011;1438;50.922;6.704;2022-07-29T03:32:40;9.63;;;2.20;;
2860;SDS011;1438;50.922;6.704;2022-07-29T03:35:07;5.63;;;2.47;;
2860;SDS011;1438;50.922;6.704;2022-07-29T03:37:33;4.30;;;2.10;;
2860;SDS011;1438;50.922;6.704;2022-07-29T03:40:02;5.90;;;1.97;;
2860;SDS011;1438;50.922;6.704;2022-07-29T03:42:33;3.23;;;2.10;;
2860;SDS011;1438;50.922;6.704;2022-07-29T03:45:00;3.50;;;1.70;;
2860;SDS011;1438;50.922;6.704;2022-07-29T03:47:27;4.83;;;2.37;;
2860;SDS011;1438;50.922;6.704;2022-07-29T03:50:06;6.37;;;2.60;;
2860;SDS011;1438;50.922;6.704;2022-07-29T03:52:32;9.93;;;2.20;;
2860;SDS011;1438;50.922;6.704;2022-07-29T03:54:59;4.57;;;1.97;;
2860;SDS011;1438;50.922;6.704;2022-07-29T03:57:25;4.67;;;1.70;;
2860;SDS011;1438;50.922;6.704;2022-07-29T03:59:53;4.27;;;1.87;;
2860;SDS011;1438;50.922;6.704;2022-07-29T04:02:19;5.23;;;1.90;;
2860;SDS011;1438;50.922;6.704;2022-07-29T04:04:45;5.67;;;2.17;;
2860;SDS011;1438;50.922;6.704;2022-07-29T04:07:12;6.07;;;2.20;;
2860;SDS011;1438;50.922;6.704;2022-07-29T04:09:38;4.70;;;2.00;;
2860;SDS011;1438;50.922;6.704;2022-07-29T04:12:04;5.10;;;2.10;;
2860;SDS011;1438;50.922;6.704;2022-07-29T04:14:31;5.73;;;2.30;;
2860;SDS011;1438;50.922;6.704;2022-07-29T04:16:57;8.30;;;2.97;;
2860;SDS011;1438;50.922;6.704;2022-07-29T04:19:23;4.90;;;2.00;;
2860;SDS011;1438;50.922;6.704;2022-07-29T04:21:50;8.33;;;2.57;;
2860;SDS011;1438;50.922;6.704;2022-07-29T04:24:16;4.80;;;1.90;;
2860;SDS011;1438;50.922;6.704;2022-07-29T04:26:42;4.97;;;2.40;;
2860;SDS011;1438;50.922;6.704;2022-07-29T04:29:08;2.70;;;2.50;;
2860;SDS011;1438;50.922;6.704;2022-07-29T04:31:34;3.80;;;1.90;;
2860;SDS011;1438;50.922;6.704;2022-07-29T04:34:00;4.77;;;2.50;;
2860;SDS011;1438;50.922;6.704;2022-07-29T04:36:26;5.47;;;2.37;;
2860;SDS011;1438;50.922;6.704;2022-07-29T04:38:52;6.90;;;2.93;;
2860;SDS011;1438;50.922;6.704;2022-07-29T04:41:18;8.57;;;2.17;;
2860;SDS011;1438;50.922;6.704;2022-07-29T04:43:44;6.13;;;2.43;;
2860;SDS011;1438;50.922;6.704;2022-07-29T04:46:11;4.90;;;2.37;;
2860;SDS011;1438;50.922;6.704;2022-07-29T04:48:37;5.43;;;2.10;;
2860;SDS011;1438;50.922;6.704;2022-07-29T04:51:03;3.30;;;2.10;;
2860;SDS011;1438;50.922;6.704;2022-07-29T04:53:29;3.77;;;2.30;;
2860;SDS011;1438;50.922;6.704;2022-07-29T04:55:55;4.87;;;2.70;;
2860;SDS011;1438;50.922;6.704;2022-07-29T04:58:21;4.30;;;2.90;;
2860;SDS011;1438;50.922;6.704;2022-07-29T05:00:48;4.27;;;2.53;;
2860;SDS011;1438;50.922;6.704;2022-07-29T05:03:14;8.17;;;3.83;;
2860;SDS011;1438;50.922;6.704;2022-07-29T05:05:40;8.90;;;2.60;;
2860;SDS011;1438;50.922;6.704;2022-07-29T05:08:07;3.73;;;2.03;;
2860;SDS011;1438;50.922;6.704;2022-07-29T05:10:33;5.60;;;2.10;;
2860;SDS011;1438;50.922;6.704;2022-07-29T05:13:03;4.33;;;2.20;;
2860;SDS011;1438;50.922;6.704;2022-07-29T05:15:29;6.07;;;1.97;;
2860;SDS011;1438;50.922;6.704;2022-07-29T05:17:55;5.70;;;2.10;;
2860;SDS011;1438;50.922;6.704;2022-07-29T05:20:21;4.07;;;2.57;;
2860;SDS011;1438;50.922;6.704;2022-07-29T05:22:51;5.90;;;2.13;;
2860;SDS011;1438;50.922;6.704;2022-07-29T05:25:17;4.80;;;2.20;;
2860;SDS011;1438;50.922;6.704;2022-07-29T05:27:43;3.47;;;2.37;;
2860;SDS011;1438;50.922;6.704;2022-07-29T05:30:09;5.70;;;2.50;;
2860;SDS011;1438;50.922;6.704;2022-07-29T05:32:35;3.00;;;2.20;;
2860;SDS011;1438;50.922;6.704;2022-07-29T05:35:01;9.33;;;3.13;;
2860;SDS011;1438;50.922;6.704;2022-07-29T05:37:27;5.00;;;2.57;;
2860;SDS011;1438;50.922;6.704;2022-07-29T05:39:53;4.33;;;2.23;;
2860;SDS011;1438;50.922;6.704;2022-07-29T05:42:19;14.43;;;3.17;;
2860;SDS011;1438;50.922;6.704;2022-07-29T05:44:45;7.63;;;3.30;;
2860;SDS011;1438;50.922;6.704;2022-07-29T05:47:12;5.30;;;2.10;;
2860;SDS011;1438;50.922;6.704;2022-07-29T05:49:38;4.90;;;2.70;;
2860;SDS011;1438;50.922;6.704;2022-07-29T05:52:04;7.60;;;2.33;;
2860;SDS011;1438;50.922;6.704;2022-07-29T05:54:31;3.87;;;2.20;;
2860;SDS011;1438;50.922;6.704;2022-07-29T05:56:57;5.27;;;3.00;;
2860;SDS011;1438;50.922;6.704;2022-07-29T05:59:22;8.13;;;2.77;;
2860;SDS011;1438;50.922;6.704;2022-07-29T06:01:48;6.50;;;2.60;;
2860;SDS011;1438;50.922;6.704;2022-07-29T06:04:14;5.67;;;3.30;;
2860;SDS011;1438;50.922;6.704;2022-07-29T06:06:40;9.67;;;3.10;;
2860;SDS011;1438;50.922;6.704;2022-07-29T06:09:06;9.60;;;3.20;;
2860;SDS011;1438;50.922;6.704;2022-07-29T06:11:32;4.20;;;2.50;;
2860;SDS011;1438;50.922;6.704;2022-07-29T06:13:58;9.77;;;3.03;;
2860;SDS011;1438;50.922;6.704;2022-07-29T06:16:24;4.40;;;2.60;;
2860;SDS011;1438;50.922;6.704;2022-07-29T06:18:50;4.80;;;2.57;;
2860;SDS011;1438;50.922;6.704;2022-07-29T06:21:17;8.20;;;3.57;;
2860;SDS011;1438;50.922;6.704;2022-07-29T06:23:43;6.50;;;3.30;;
2860;SDS011;1438;50.922;6.704;2022-07-29T06:26:10;4.53;;;2.63;;
2860;SDS011;1438;50.922;6.704;2022-07-29T06:28:36;5.23;;;2.40;;
2860;SDS011;1438;50.922;6.704;2022-07-29T06:31:02;3.57;;;2.27;;
2860;SDS011;1438;50.922;6.704;2022-07-29T06:33:28;7.97;;;3.50;;
2860;SDS011;1438;50.922;6.704;2022-07-29T06:35:54;6.33;;;4.10;;
2860;SDS011;1438;50.922;6.704;2022-07-29T06:38:20;7.53;;;3.70;;
2860;SDS011;1438;50.922;6.704;2022-07-29T06:40:47;4.43;;;3.53;;
2860;SDS011;1438;50.922;6.704;2022-07-29T06:43:29;10.07;;;4.80;;
2860;SDS011;1438;50.922;6.704;2022-07-29T06:45:58;6.03;;;3.97;;
2860;SDS011;1438;50.922;6.704;2022-07-29T06:48:24;9.90;;;5.33;;
2860;SDS011;1438;50.922;6.704;2022-07-29T06:50:50;10.67;;;4.53;;
2860;SDS011;1438;50.922;6.704;2022-07-29T06:53:16;6.00;;;4.60;;
2860;SDS011;1438;50.922;6.704;2022-07-29T06:55:42;6.17;;;4.50;;
2860;SDS011;1438;50.922;6.704;2022-07-29T06:58:08;6.90;;;4.57;;
2860;SDS011;1438;50.922;6.704;2022-07-29T07:00:35;10.17;;;4.70;;
2860;SDS011;1438;50.922;6.704;2022-07-29T07:03:01;8.97;;;6.17;;
2860;SDS011;1438;50.922;6.704;2022-07-29T07:05:27;12.73;;;4.80;;
2860;SDS011;1438;50.922;6.704;2022-07-29T07:07:53;9.13;;;5.53;;
2860;SDS011;1438;50.922;6.704;2022-07-29T07:10:19;6.73;;;6.00;;
2860;SDS011;1438;50.922;6.704;2022-07-29T07:12:45;8.80;;;5.27;;
2860;SDS011;1438;50.922;6.704;2022-07-29T07:15:11;6.00;;;4.67;;
2860;SDS011;1438;50.922;6.704;2022-07-29T07:17:37;9.70;;;4.70;;
2860;SDS011;1438;50.922;6.704;2022-07-29T07:20:04;10.17;;;5.43;;
2860;SDS011;1438;50.922;6.704;2022-07-29T07:22:30;6.57;;;4.97;;
2860;SDS011;1438;50.922;6.704;2022-07-29T07:24:56;9.47;;;4.60;;
2860;SDS011;1438;50.922;6.704;2022-07-29T07:27:22;7.33;;;4.60;;
2860;SDS011;1438;50.922;6.704;2022-07-29T07:29:48;5.43;;;4.17;;
2860;SDS011;1438;50.922;6.704;2022-07-29T07:32:14;9.20;;;4.20;;
2860;SDS011;1438;50.922;6.704;2022-07-29T07:34:41;6.63;;;4.10;;
2860;SDS011;1438;50.922;6.704;2022-07-29T07:37:08;8.80;;;4.93;;
2860;SDS011;1438;50.922;6.704;2022-07-29T07:39:34;8.03;;;4.50;;
2860;SDS011;1438;50.922;6.704;2022-07-29T07:42:00;7.53;;;5.10;;
2860;SDS011;1438;50.922;6.704;2022-07-29T07:44:26;6.90;;;4.77;;
2860;SDS011;1438;50.922;6.704;2022-07-29T07:46:52;11.07;;;5.50;;
2860;SDS011;1438;50.922;6.704;2022-07-29T07:49:18;8.50;;;5.53;;
2860;SDS011;1438;50.922;6.704;2022-07-29T07:51:44;5.10;;;4.57;;
2860;SDS011;1438;50.922;6.704;2022-07-29T07:54:10;8.20;;;6.00;;
2860;SDS011;1438;50.922;6.704;2022-07-29T07:56:36;6.13;;;5.30;;
2860;SDS011;1438;50.922;6.704;2022-07-29T07:59:02;7.40;;;5.07;;
2860;SDS011;1438;50.922;6.704;2022-07-29T08:01:28;9.33;;;5.63;;
2860;SDS011;1438;50.922;6.704;2022-07-29T08:03:54;9.87;;;5.60;;
2860;SDS011;1438;50.922;6.704;2022-07-29T08:06:21;12.83;;;5.57;;
2860;SDS011;1438;50.922;6.704;2022-07-29T08:08:48;8.63;;;6.83;;
2860;SDS011;1438;50.922;6.704;2022-07-29T08:11:14;7.33;;;6.43;;
2860;SDS011;1438;50.922;6.704;2022-07-29T08:13:40;10.63;;;6.10;;
2860;SDS011;1438;50.922;6.704;2022-07-29T08:16:07;10.03;;;6.60;;
2860;SDS011;1438;50.922;6.704;2022-07-29T08:18:37;10.80;;;6.60;;
2860;SDS011;1438;50.922;6.704;2022-07-29T08:21:03;9.13;;;6.50;;
2860;SDS011;1438;50.922;6.704;2022-07-29T08:23:30;9.80;;;6.73;;
2860;SDS011;1438;50.922;6.704;2022-07-29T08:26:11;7.87;;;6.50;;
2860;SDS011;1438;50.922;6.704;2022-07-29T08:28:37;10.80;;;6.43;;
2860;SDS011;1438;50.922;6.704;2022-07-29T08:31:03;13.37;;;7.50;;
2860;SDS011;1438;50.922;6.704;2022-07-29T08:33:29;9.80;;;7.00;;
2860;SDS011;1438;50.922;6.704;2022-07-29T08:35:55;13.80;;;8.57;;
2860;SDS011;1438;50.922;6.704;2022-07-29T08:38:21;8.53;;;7.27;;
2860;SDS011;1438;50.922;6.704;2022-07-29T08:40:47;11.07;;;7.80;;
2860;SDS011;1438;50.922;6.704;2022-07-29T08:43:13;23.80;;;8.47;;
2860;SDS011;1438;50.922;6.704;2022-07-29T08:45:47;16.73;;;7.83;;
2860;SDS011;1438;50.922;6.704;2022-07-29T08:48:21;11.90;;;7.90;;
2860;SDS011;1438;50.922;6.704;2022-07-29T08:50:48;12.67;;;7.00;;
2860;SDS011;1438;50.922;6.704;2022-07-29T08:53:15;12.10;;;7.03;;
2860;SDS011;1438;50.922;6.704;2022-07-29T08:55:45;12.03;;;7.17;;
2860;SDS011;1438;50.922;6.704;2022-07-29T08:58:11;10.43;;;6.93;;
2860;SDS011;1438;50.922;6.704;2022-07-29T09:00:41;7.30;;;6.50;;
2860;SDS011;1438;50.922;6.704;2022-07-29T09:03:07;20.90;;;7.57;;
2860;SDS011;1438;50.922;6.704;2022-07-29T09:05:34;8.87;;;5.57;;
2860;SDS011;1438;50.922;6.704;2022-07-29T09:08:01;11.77;;;6.00;;
2860;SDS011;1438;50.922;6.704;2022-07-29T09:10:27;8.23;;;5.27;;
2860;SDS011;1438;50.922;6.704;2022-07-29T09:12:57;7.77;;;5.20;;
2860;SDS011;1438;50.922;6.704;2022-07-29T09:15:23;8.80;;;4.73;;
2860;SDS011;1438;50.922;6.704;2022-07-29T09:17:50;6.60;;;5.20;;
2860;SDS011;1438;50.922;6.704;2022-07-29T09:20:17;7.67;;;4.20;;
2860;SDS011;1438;50.922;6.704;2022-07-29T09:22:43;6.83;;;4.23;;
2860;SDS011;1438;50.922;6.704;2022-07-29T09:25:14;10.43;;;4.63;;
2860;SDS011;1438;50.922;6.704;2022-07-29T09:27:40;9.73;;;4.60;;
2860;SDS011;1438;50.922;6.704;2022-07-29T09:30:07;10.07;;;4.40;;
2860;SDS011;1438;50.922;6.704;2022-07-29T09:32:57;12.97;;;4.87;;
2860;SDS011;1438;50.922;6.704;2022-07-29T09:35:22;8.07;;;3.97;;
2860;SDS011;1438;50.922;6.704;2022-07-29T09:37:49;8.10;;;4.73;;
2860;SDS011;1438;50.922;6.704;2022-07-29T09:40:19;8.00;;;4.73;;
2860;SDS011;1438;50.922;6.704;2022-07-29T09:42:45;7.97;;;5.07;;
2860;SDS011;1438;50.922;6.704;2022-07-29T09:45:11;7.87;;;5.00;;
2860;SDS011;1438;50.922;6.704;2022-07-29T09:47:44;18.27;;;5.47;;
2860;SDS011;1438;50.922;6.704;2022-07-29T09:50:12;8.10;;;4.70;;
2860;SDS011;1438;50.922;6.704;2022-07-29T09:52:44;7.93;;;4.03;;
2860;SDS011;1438;50.922;6.704;2022-07-29T09:55:11;9.67;;;4.30;;
2860;SDS011;1438;50.922;6.704;2022-07-29T09:57:37;7.27;;;4.20;;
2860;SDS011;1438;50.922;6.704;2022-07-29T10:00:05;4.80;;;3.80;;
2860;SDS011;1438;50.922;6.704;2022-07-29T10:02:32;9.57;;;3.77;;
2860;SDS011;1438;50.922;6.704;2022-07-29T10:04:59;5.27;;;3.87;;
2860;SDS011;1438;50.922;6.704;2022-07-29T10:07:26;7.10;;;4.33;;
2860;SDS011;1438;50.922;6.704;2022-07-29T10:09:53;6.80;;;4.50;;
2860;SDS011;1438;50.922;6.704;2022-07-29T10:12:19;7.20;;;4.47;;
2860;SDS011;1438;50.922;6.704;2022-07-29T10:14:45;6.23;;;3.40;;
2860;SDS011;1438;50.922;6.704;2022-07-29T10:17:12;5.60;;;3.63;;
2860;SDS011;1438;50.922;6.704;2022-07-29T10:19:38;6.97;;;3.60;;
2860;SDS011;1438;50.922;6.704;2022-07-29T10:22:05;5.43;;;3.70;;
2860;SDS011;1438;50.922;6.704;2022-07-29T10:24:32;9.33;;;3.63;;
2860;SDS011;1438;50.922;6.704;2022-07-29T10:27:00;7.83;;;3.30;;
2860;SDS011;1438;50.922;6.704;2022-07-29T10:29:27;6.47;;;3.30;;
2860;SDS011;1438;50.922;6.704;2022-07-29T10:37:28;6.80;;;4.03;;
2860;SDS011;1438;50.922;6.704;2022-07-29T10:43:02;4.57;;;2.87;;
2860;SDS011;1438;50.922;6.704;2022-07-29T10:45:32;6.77;;;2.70;;
2860;SDS011;1438;50.922;6.704;2022-07-29T10:48:04;5.40;;;2.70;;
2860;SDS011;1438;50.922;6.704;2022-07-29T10:53:16;7.10;;;3.57;;
2860;SDS011;1438;50.922;6.704;2022-07-29T10:55:42;10.50;;;3.53;;
2860;SDS011;1438;50.922;6.704;2022-07-29T10:58:15;6.10;;;3.27;;
2860;SDS011;1438;50.922;6.704;2022-07-29T11:00:42;8.47;;;4.10;;
2860;SDS011;1438;50.922;6.704;2022-07-29T11:03:08;7.40;;;3.90;;
2860;SDS011;1438;50.922;6.704;2022-07-29T11:05:53;3.70;;;2.60;;
2860;SDS011;1438;50.922;6.704;2022-07-29T11:08:21;10.77;;;3.50;;
2860;SDS011;1438;50.922;6.704;2022-07-29T11:10:49;5.03;;;2.57;;
2860;SDS011;1438;50.922;6.704;2022-07-29T11:16:00;5.70;;;2.63;;
2860;SDS011;1438;50.922;6.704;2022-07-29T11:18:26;7.80;;;2.90;;
2860;SDS011;1438;50.922;6.704;2022-07-29T11:20:51;8.30;;;2.93;;
2860;SDS011;1438;50.922;6.704;2022-07-29T11:23:27;4.07;;;1.90;;
2860;SDS011;1438;50.922;6.704;2022-07-29T11:26:15;3.57;;;2.10;;
2860;SDS011;1438;50.922;6.704;2022-07-29T11:28:56;4.07;;;1.80;;
2860;SDS011;1438;50.922;6.704;2022-07-29T11:31:36;4.93;;;2.30;;
2860;SDS011;1438;50.922;6.704;2022-07-29T11:34:18;4.60;;;2.60;;
2860;SDS011;1438;50.922;6.704;2022-07-29T11:39:30;4.20;;;1.93;;
2860;SDS011;1438;50.922;6.704;2022-07-29T11:47:22;20.23;;;3.30;;
2860;SDS011;1438;50.922;6.704;2022-07-29T11:49:48;5.03;;;2.00;;
2860;SDS011;1438;50.922;6.704;2022-07-29T11:52:15;2.63;;;1.73;;
2860;SDS011;1438;50.922;6.704;2022-07-29T11:54:41;6.30;;;2.40;;
2860;SDS011;1438;50.922;6.704;2022-07-29T11:57:08;3.83;;;2.10;;
2860;SDS011;1438;50.922;6.704;2022-07-29T11:59:40;2.93;;;1.63;;
2860;SDS011;1438;50.922;6.704;2022-07-29T12:02:07;4.07;;;2.03;;
2860;SDS011;1438;50.922;6.704;2022-07-29T12:04:33;3.00;;;2.13;;
2860;SDS011;1438;50.922;6.704;2022-07-29T12:06:59;3.10;;;1.77;;
2860;SDS011;1438;50.922;6.704;2022-07-29T12:09:26;5.60;;;1.87;;
2860;SDS011;1438;50.922;6.704;2022-07-29T12:11:58;3.10;;;1.93;;
2860;SDS011;1438;50.922;6.704;2022-07-29T12:16:50;6.80;;;1.77;;
2860;SDS011;1438;50.922;6.704;2022-07-29T12:19:16;3.97;;;2.30;;
2860;SDS011;1438;50.922;6.704;2022-07-29T12:21:52;4.20;;;2.23;;
2860;SDS011;1438;50.922;6.704;2022-07-29T12:24:19;3.20;;;1.70;;
2860;SDS011;1438;50.922;6.704;2022-07-29T12:26:52;3.93;;;2.10;;
2860;SDS011;1438;50.922;6.704;2022-07-29T12:29:19;4.50;;;1.93;;
2860;SDS011;1438;50.922;6.704;2022-07-29T12:31:45;7.50;;;2.47;;
2860;SDS011;1438;50.922;6.704;2022-07-29T12:34:12;3.93;;;1.80;;
2860;SDS011;1438;50.922;6.704;2022-07-29T12:36:39;3.30;;;1.70;;
2860;SDS011;1438;50.922;6.704;2022-07-29T12:39:06;6.00;;;2.10;;
2860;SDS011;1438;50.922;6.704;2022-07-29T12:41:32;2.37;;;1.87;;
2860;SDS011;1438;50.922;6.704;2022-07-29T12:43:58;3.73;;;2.10;;
2860;SDS011;1438;50.922;6.704;2022-07-29T12:46:24;6.90;;;2.30;;
2860;SDS011;1438;50.922;6.704;2022-07-29T12:48:50;6.17;;;1.90;;
2860;SDS011;1438;50.922;6.704;2022-07-29T12:51:27;5.33;;;2.20;;
2860;SDS011;1438;50.922;6.704;2022-07-29T12:54:10;4.03;;;2.40;;
2860;SDS011;1438;50.922;6.704;2022-07-29T12:56:39;3.43;;;2.00;;
2860;SDS011;1438;50.922;6.704;2022-07-29T12:59:16;6.73;;;2.03;;
2860;SDS011;1438;50.922;6.704;2022-07-29T13:01:42;3.40;;;2.50;;
2860;SDS011;1438;50.922;6.704;2022-07-29T13:04:09;7.23;;;2.60;;
2860;SDS011;1438;50.922;6.704;2022-07-29T13:06:41;7.20;;;3.47;;
2860;SDS011;1438;50.922;6.704;2022-07-29T13:09:12;5.10;;;3.00;;
2860;SDS011;1438;50.922;6.704;2022-07-29T13:11:43;6.13;;;3.30;;
2860;SDS011;1438;50.922;6.704;2022-07-29T13:14:10;6.60;;;4.07;;
2860;SDS011;1438;50.922;6.704;2022-07-29T13:16:37;8.17;;;3.30;;
2860;SDS011;1438;50.922;6.704;2022-07-29T13:19:04;9.53;;;4.73;;
2860;SDS011;1438;50.922;6.704;2022-07-29T13:21:30;8.30;;;4.57;;
2860;SDS011;1438;50.922;6.704;2022-07-29T13:23:56;15.83;;;4.77;;
2860;SDS011;1438;50.922;6.704;2022-07-29T13:26:22;10.50;;;5.30;;
2860;SDS011;1438;50.922;6.704;2022-07-29T13:28:48;9.97;;;4.17;;
2860;SDS011;1438;50.922;6.704;2022-07-29T13:31:14;9.87;;;4.83;;
2860;SDS011;1438;50.922;6.704;2022-07-29T13:33:40;9.50;;;5.03;;
2860;SDS011;1438;50.922;6.704;2022-07-29T13:36:06;10.30;;;4.73;;
2860;SDS011;1438;50.922;6.704;2022-07-29T13:38:32;6.40;;;4.73;;
2860;SDS011;1438;50.922;6.704;2022-07-29T13:40:58;7.07;;;4.47;;
2860;SDS011;1438;50.922;6.704;2022-07-29T13:43:25;8.27;;;4.50;;
2860;SDS011;1438;50.922;6.704;2022-07-29T13:45:51;14.67;;;4.10;;
2860;SDS011;1438;50.922;6.704;2022-07-29T13:48:17;8.97;;;4.63;;
2860;SDS011;1438;50.922;6.704;2022-07-29T13:50:43;7.93;;;4.50;;
2860;SDS011;1438;50.922;6.704;2022-07-29T13:53:09;8.03;;;4.20;;
2860;SDS011;1438;50.922;6.704;2022-07-29T13:55:35;6.57;;;4.13;;
2860;SDS011;1438;50.922;6.704;2022-07-29T13:58:01;7.50;;;3.40;;
2860;SDS011;1438;50.922;6.704;2022-07-29T14:00:27;7.13;;;4.10;;
2860;SDS011;1438;50.922;6.704;2022-07-29T14:02:53;9.03;;;4.03;;
2860;SDS011;1438;50.922;6.704;2022-07-29T14:05:19;8.10;;;4.23;;
2860;SDS011;1438;50.922;6.704;2022-07-29T14:07:45;6.63;;;4.40;;
2860;SDS011;1438;50.922;6.704;2022-07-29T14:10:11;9.40;;;4.20;;
2860;SDS011;1438;50.922;6.704;2022-07-29T14:12:37;4.77;;;3.43;;
2860;SDS011;1438;50.922;6.704;2022-07-29T14:15:04;8.93;;;3.80;;
2860;SDS011;1438;50.922;6.704;2022-07-29T14:17:30;9.93;;;3.13;;
2860;SDS011;1438;50.922;6.704;2022-07-29T14:19:56;4.73;;;3.23;;
2860;SDS011;1438;50.922;6.704;2022-07-29T14:22:22;5.20;;;2.90;;
2860;SDS011;1438;50.922;6.704;2022-07-29T14:24:50;8.90;;;3.40;;
2860;SDS011;1438;50.922;6.704;2022-07-29T14:27:16;5.33;;;2.90;;
2860;SDS011;1438;50.922;6.704;2022-07-29T14:29:42;5.60;;;2.70;;
2860;SDS011;1438;50.922;6.704;2022-07-29T14:32:08;5.70;;;2.40;;
2860;SDS011;1438;50.922;6.704;2022-07-29T14:34:35;4.40;;;2.50;;
2860;SDS011;1438;50.922;6.704;2022-07-29T14:37:01;5.43;;;2.20;;
2860;SDS011;1438;50.922;6.704;2022-07-29T14:39:29;5.03;;;2.00;;
2860;SDS011;1438;50.922;6.704;2022-07-29T14:41:58;3.70;;;2.60;;
2860;SDS011;1438;50.922;6.704;2022-07-29T14:44:24;8.07;;;2.40;;
2860;SDS011;1438;50.922;6.704;2022-07-29T14:46:55;5.10;;;2.43;;
2860;SDS011;1438;50.922;6.704;2022-07-29T14:49:21;3.87;;;2.00;;
2860;SDS011;1438;50.922;6.704;2022-07-29T14:51:47;3.77;;;1.90;;
2860;SDS011;1438;50.922;6.704;2022-07-29T14:54:13;3.13;;;1.50;;
2860;SDS011;1438;50.922;6.704;2022-07-29T14:56:39;2.47;;;1.80;;
2860;SDS011;1438;50.922;6.704;2022-07-29T14:59:05;3.20;;;2.00;;
2860;SDS011;1438;50.922;6.704;2022-07-29T15:01:32;3.93;;;1.50;;
2860;SDS011;1438;50.922;6.704;2022-07-29T15:03:58;4.10;;;1.90;;
2860;SDS011;1438;50.922;6.704;2022-07-29T15:06:24;5.83;;;2.23;;
2860;SDS011;1438;50.922;6.704;2022-07-29T15:08:49;7.83;;;2.20;;
2860;SDS011;1438;50.922;6.704;2022-07-29T15:11:16;4.73;;;2.20;;
2860;SDS011;1438;50.922;6.704;2022-07-29T15:13:42;5.63;;;1.93;;
2860;SDS011;1438;50.922;6.704;2022-07-29T15:16:08;6.03;;;2.37;;
2860;SDS011;1438;50.922;6.704;2022-07-29T15:18:34;4.80;;;2.30;;
2860;SDS011;1438;50.922;6.704;2022-07-29T15:21:02;6.07;;;2.10;;
2860;SDS011;1438;50.922;6.704;2022-07-29T15:23:28;3.30;;;1.50;;
2860;SDS011;1438;50.922;6.704;2022-07-29T15:25:54;4.07;;;2.33;;
2860;SDS011;1438;50.922;6.704;2022-07-29T15:28:20;3.77;;;1.90;;
2860;SDS011;1438;50.922;6.704;2022-07-29T15:30:47;4.93;;;2.23;;
2860;SDS011;1438;50.922;6.704;2022-07-29T15:33:13;2.87;;;1.80;;
2860;SDS011;1438;50.922;6.704;2022-07-29T15:35:39;5.00;;;2.53;;
2860;SDS011;1438;50.922;6.704;2022-07-29T15:38:05;3.33;;;2.13;;
2860;SDS011;1438;50.922;6.704;2022-07-29T15:40:31;3.90;;;2.20;;
2860;SDS011;1438;50.922;6.704;2022-07-29T15:42:57;2.47;;;1.83;;
2860;SDS011;1438;50.922;6.704;2022-07-29T15:45:32;5.47;;;1.80;;
2860;SDS011;1438;50.922;6.704;2022-07-29T15:48:00;4.03;;;1.80;;
2860;SDS011;1438;50.922;6.704;2022-07-29T15:50:26;4.20;;;2.20;;
2860;SDS011;1438;50.922;6.704;2022-07-29T15:52:52;4.27;;;2.30;;